Aviation Digital Data Service (ADDS)

Output produced by METARs form (0210 UTC 24 July 2014)
found at http://aviationweather.gov/adds/metars/
 
KPWM 240141Z 2402/2424 35005KT 5SM SHRA BR BKN060 
     FM240400 30005KT P6SM SCT040 BKN100 
     FM240800 34005KT 3SM BR SCT012 SCT040 BKN100 
     FM241200 35009KT P6SM SCT040 SCT120 
     FM242100 18006KT P6SM FEW050